sensor_id;sensor_type;location;lat;lon;timestamp;temperature;humidity
680;DHT22;322;48.846;9.230;2024-01-10T00:00:54;-4.20;95.30
680;DHT22;322;48.846;9.230;2024-01-10T00:03:22;-4.20;95.40
680;DHT22;322;48.846;9.230;2024-01-10T00:05:50;-4.20;95.80
680;DHT22;322;48.846;9.230;2024-01-10T00:08:18;-4.00;95.90
680;DHT22;322;48.846;9.230;2024-01-10T00:10:46;-4.10;94.20
680;DHT22;322;48.846;9.230;2024-01-10T00:13:14;-4.10;94.80
680;DHT22;322;48.846;9.230;2024-01-10T00:15:42;-4.10;95.70
680;DHT22;322;48.846;9.230;2024-01-10T00:18:12;-4.10;95.40
680;DHT22;322;48.846;9.230;2024-01-10T00:20:40;-4.10;95.50
680;DHT22;322;48.846;9.230;2024-01-10T00:23:08;-4.20;94.60
680;DHT22;322;48.846;9.230;2024-01-10T00:25:36;-4.20;95.00
680;DHT22;322;48.846;9.230;2024-01-10T00:28:04;-4.00;95.60
680;DHT22;322;48.846;9.230;2024-01-10T00:30:32;-4.10;94.40
680;DHT22;322;48.846;9.230;2024-01-10T00:33:00;-4.00;94.90
680;DHT22;322;48.846;9.230;2024-01-10T00:35:30;-4.00;93.40
680;DHT22;322;48.846;9.230;2024-01-10T00:37:58;-4.00;93.10
680;DHT22;322;48.846;9.230;2024-01-10T00:40:26;-4.00;93.70
680;DHT22;322;48.846;9.230;2024-01-10T00:42:54;-4.10;93.80
680;DHT22;322;48.846;9.230;2024-01-10T00:45:22;-3.90;95.20
680;DHT22;322;48.846;9.230;2024-01-10T00:47:50;-3.90;95.90
680;DHT22;322;48.846;9.230;2024-01-10T00:50:18;-3.80;95.80
680;DHT22;322;48.846;9.230;2024-01-10T00:52:47;-3.90;95.00
680;DHT22;322;48.846;9.230;2024-01-10T00:55:15;-4.00;94.90
680;DHT22;322;48.846;9.230;2024-01-10T00:57:42;-4.10;96.40
680;DHT22;322;48.846;9.230;2024-01-10T01:00:11;-4.10;97.90
680;DHT22;322;48.846;9.230;2024-01-10T01:02:40;-3.90;98.60
680;DHT22;322;48.846;9.230;2024-01-10T01:05:08;-3.80;98.90
680;DHT22;322;48.846;9.230;2024-01-10T01:07:36;-4.00;98.70
680;DHT22;322;48.846;9.230;2024-01-10T01:10:06;-4.10;98.70
680;DHT22;322;48.846;9.230;2024-01-10T01:12:35;-4.20;98.30
680;DHT22;322;48.846;9.230;2024-01-10T01:15:04;-4.10;95.60
680;DHT22;322;48.846;9.230;2024-01-10T01:17:33;-4.20;94.70
680;DHT22;322;48.846;9.230;2024-01-10T01:20:01;-4.20;94.80
680;DHT22;322;48.846;9.230;2024-01-10T01:22:31;-4.30;95.40
680;DHT22;322;48.846;9.230;2024-01-10T01:24:59;-4.40;95.60
680;DHT22;322;48.846;9.230;2024-01-10T01:27:28;-4.30;95.40
680;DHT22;322;48.846;9.230;2024-01-10T01:29:56;-4.40;95.50
680;DHT22;322;48.846;9.230;2024-01-10T01:32:24;-4.40;95.80
680;DHT22;322;48.846;9.230;2024-01-10T01:34:52;-4.20;94.90
680;DHT22;322;48.846;9.230;2024-01-10T01:37:20;-4.10;94.60
680;DHT22;322;48.846;9.230;2024-01-10T01:39:48;-4.10;94.30
680;DHT22;322;48.846;9.230;2024-01-10T01:42:17;-4.00;94.80
680;DHT22;322;48.846;9.230;2024-01-10T01:44:46;-4.00;94.90
680;DHT22;322;48.846;9.230;2024-01-10T01:47:14;-4.00;95.70
680;DHT22;322;48.846;9.230;2024-01-10T01:49:43;-4.10;95.40
680;DHT22;322;48.846;9.230;2024-01-10T01:52:11;-3.90;97.20
680;DHT22;322;48.846;9.230;2024-01-10T01:54:39;-3.80;97.80
680;DHT22;322;48.846;9.230;2024-01-10T01:57:07;-3.80;95.90
680;DHT22;322;48.846;9.230;2024-01-10T01:59:36;-3.90;96.20
680;DHT22;322;48.846;9.230;2024-01-10T02:02:05;-3.90;95.90
680;DHT22;322;48.846;9.230;2024-01-10T02:04:34;-3.80;96.30
680;DHT22;322;48.846;9.230;2024-01-10T02:07:02;-3.80;94.50
680;DHT22;322;48.846;9.230;2024-01-10T02:09:30;-3.80;94.60
680;DHT22;322;48.846;9.230;2024-01-10T02:11:58;-3.80;95.20
680;DHT22;322;48.846;9.230;2024-01-10T02:14:26;-3.80;94.80
680;DHT22;322;48.846;9.230;2024-01-10T02:16:54;-3.80;94.70
680;DHT22;322;48.846;9.230;2024-01-10T02:19:25;-3.80;94.80
680;DHT22;322;48.846;9.230;2024-01-10T02:21:55;-3.60;96.10
680;DHT22;322;48.846;9.230;2024-01-10T02:24:23;-3.60;96.00
680;DHT22;322;48.846;9.230;2024-01-10T02:26:52;-3.70;95.60
680;DHT22;322;48.846;9.230;2024-01-10T02:29:21;-3.80;96.90
680;DHT22;322;48.846;9.230;2024-01-10T02:31:50;-3.80;96.30
680;DHT22;322;48.846;9.230;2024-01-10T02:34:18;-3.90;96.60
680;DHT22;322;48.846;9.230;2024-01-10T02:36:46;-3.90;96.90
680;DHT22;322;48.846;9.230;2024-01-10T02:39:14;-3.90;97.30
680;DHT22;322;48.846;9.230;2024-01-10T02:41:42;-4.00;97.10
680;DHT22;322;48.846;9.230;2024-01-10T02:44:11;-4.10;96.70
680;DHT22;322;48.846;9.230;2024-01-10T02:46:41;-4.20;96.50
680;DHT22;322;48.846;9.230;2024-01-10T02:49:09;-4.30;96.40
680;DHT22;322;48.846;9.230;2024-01-10T02:51:37;-4.40;96.50
680;DHT22;322;48.846;9.230;2024-01-10T02:54:05;-4.40;97.20
680;DHT22;322;48.846;9.230;2024-01-10T02:56:33;-4.30;97.30
680;DHT22;322;48.846;9.230;2024-01-10T02:59:01;-4.50;97.30
680;DHT22;322;48.846;9.230;2024-01-10T03:01:30;-4.60;97.40
680;DHT22;322;48.846;9.230;2024-01-10T03:03:58;-4.70;97.20
680;DHT22;322;48.846;9.230;2024-01-10T03:06:26;-4.60;97.50
680;DHT22;322;48.846;9.230;2024-01-10T03:08:55;-4.80;97.50
680;DHT22;322;48.846;9.230;2024-01-10T03:11:23;-4.80;97.90
680;DHT22;322;48.846;9.230;2024-01-10T03:14:00;-4.80;98.50
680;DHT22;322;48.846;9.230;2024-01-10T03:16:29;-4.70;98.60
680;DHT22;322;48.846;9.230;2024-01-10T03:18:58;-4.70;98.10
680;DHT22;322;48.846;9.230;2024-01-10T03:21:25;-4.70;98.70
680;DHT22;322;48.846;9.230;2024-01-10T03:23:55;-4.70;98.90
680;DHT22;322;48.846;9.230;2024-01-10T03:26:23;-4.60;98.90
680;DHT22;322;48.846;9.230;2024-01-10T03:28:51;-4.60;99.10
680;DHT22;322;48.846;9.230;2024-01-10T03:31:20;-4.50;99.30
680;DHT22;322;48.846;9.230;2024-01-10T03:33:49;-4.30;99.70
680;DHT22;322;48.846;9.230;2024-01-10T03:36:18;-4.30;99.30
680;DHT22;322;48.846;9.230;2024-01-10T03:38:46;-4.20;99.00
680;DHT22;322;48.846;9.230;2024-01-10T03:41:14;-4.20;98.80
680;DHT22;322;48.846;9.230;2024-01-10T03:43:43;-4.20;97.90
680;DHT22;322;48.846;9.230;2024-01-10T03:46:11;-4.10;98.60
680;DHT22;322;48.846;9.230;2024-01-10T03:48:40;-3.90;98.70
680;DHT22;322;48.846;9.230;2024-01-10T03:51:16;-3.90;97.60
680;DHT22;322;48.846;9.230;2024-01-10T03:53:44;-4.00;97.10
680;DHT22;322;48.846;9.230;2024-01-10T03:56:12;-4.00;96.80
680;DHT22;322;48.846;9.230;2024-01-10T03:58:41;-4.00;96.80
680;DHT22;322;48.846;9.230;2024-01-10T04:01:09;-4.00;96.70
680;DHT22;322;48.846;9.230;2024-01-10T04:03:37;-3.90;98.20
680;DHT22;322;48.846;9.230;2024-01-10T04:06:08;-3.80;97.10
680;DHT22;322;48.846;9.230;2024-01-10T04:08:37;-3.80;97.80
680;DHT22;322;48.846;9.230;2024-01-10T04:11:05;-3.60;97.70
680;DHT22;322;48.846;9.230;2024-01-10T04:13:33;-3.50;97.40
680;DHT22;322;48.846;9.230;2024-01-10T04:16:01;-3.40;97.90
680;DHT22;322;48.846;9.230;2024-01-10T04:18:29;-3.30;96.60
680;DHT22;322;48.846;9.230;2024-01-10T04:20:57;-3.20;96.70
680;DHT22;322;48.846;9.230;2024-01-10T04:23:25;-3.20;96.80
680;DHT22;322;48.846;9.230;2024-01-10T04:25:54;-3.10;96.20
680;DHT22;322;48.846;9.230;2024-01-10T04:28:22;-3.20;97.20
680;DHT22;322;48.846;9.230;2024-01-10T04:30:50;-3.00;97.00
680;DHT22;322;48.846;9.230;2024-01-10T04:33:18;-2.90;96.30
680;DHT22;322;48.846;9.230;2024-01-10T04:35:46;-2.90;96.00
680;DHT22;322;48.846;9.230;2024-01-10T04:38:14;-2.90;95.80
680;DHT22;322;48.846;9.230;2024-01-10T04:40:42;-2.90;95.70
680;DHT22;322;48.846;9.230;2024-01-10T04:43:12;-2.90;96.10
680;DHT22;322;48.846;9.230;2024-01-10T04:45:39;-2.90;96.50
680;DHT22;322;48.846;9.230;2024-01-10T04:48:07;-2.80;95.80
680;DHT22;322;48.846;9.230;2024-01-10T04:50:36;-2.80;95.90
680;DHT22;322;48.846;9.230;2024-01-10T04:53:04;-2.80;94.80
680;DHT22;322;48.846;9.230;2024-01-10T04:55:32;-2.80;94.90
680;DHT22;322;48.846;9.230;2024-01-10T04:58:00;-2.80;95.60
680;DHT22;322;48.846;9.230;2024-01-10T05:00:29;-2.90;94.60
680;DHT22;322;48.846;9.230;2024-01-10T05:02:57;-3.00;94.80
680;DHT22;322;48.846;9.230;2024-01-10T05:05:25;-2.90;96.10
680;DHT22;322;48.846;9.230;2024-01-10T05:07:53;-2.80;95.90
680;DHT22;322;48.846;9.230;2024-01-10T05:10:21;-2.70;95.90
680;DHT22;322;48.846;9.230;2024-01-10T05:12:49;-2.90;95.60
680;DHT22;322;48.846;9.230;2024-01-10T05:15:17;-2.90;94.70
680;DHT22;322;48.846;9.230;2024-01-10T05:17:47;-2.90;95.60
680;DHT22;322;48.846;9.230;2024-01-10T05:20:15;-2.90;96.00
680;DHT22;322;48.846;9.230;2024-01-10T05:22:43;-2.90;95.80
680;DHT22;322;48.846;9.230;2024-01-10T05:25:11;-2.90;95.40
680;DHT22;322;48.846;9.230;2024-01-10T05:27:39;-2.80;96.50
680;DHT22;322;48.846;9.230;2024-01-10T05:30:08;-2.70;96.10
680;DHT22;322;48.846;9.230;2024-01-10T05:32:39;-2.70;95.50
680;DHT22;322;48.846;9.230;2024-01-10T05:35:08;-2.70;95.70
680;DHT22;322;48.846;9.230;2024-01-10T05:37:37;-2.70;95.00
680;DHT22;322;48.846;9.230;2024-01-10T05:40:06;-2.80;95.80
680;DHT22;322;48.846;9.230;2024-01-10T05:42:35;-2.70;95.90
680;DHT22;322;48.846;9.230;2024-01-10T05:45:05;-2.70;95.90
680;DHT22;322;48.846;9.230;2024-01-10T05:47:33;-2.70;95.50
680;DHT22;322;48.846;9.230;2024-01-10T05:50:02;-2.70;95.60
680;DHT22;322;48.846;9.230;2024-01-10T05:52:34;-2.70;96.00
680;DHT22;322;48.846;9.230;2024-01-10T05:55:02;-2.80;95.70
680;DHT22;322;48.846;9.230;2024-01-10T05:57:30;-2.80;96.10
680;DHT22;322;48.846;9.230;2024-01-10T05:59:59;-3.00;96.50
680;DHT22;322;48.846;9.230;2024-01-10T06:02:27;-3.00;96.70
680;DHT22;322;48.846;9.230;2024-01-10T06:04:55;-3.00;96.80
680;DHT22;322;48.846;9.230;2024-01-10T06:07:23;-3.10;96.40
680;DHT22;322;48.846;9.230;2024-01-10T06:09:52;-3.20;96.10
680;DHT22;322;48.846;9.230;2024-01-10T06:12:20;-3.40;96.70
680;DHT22;322;48.846;9.230;2024-01-10T06:14:48;-3.30;96.90
680;DHT22;322;48.846;9.230;2024-01-10T06:17:16;-3.40;97.40
680;DHT22;322;48.846;9.230;2024-01-10T06:19:45;-3.60;97.00
680;DHT22;322;48.846;9.230;2024-01-10T06:22:14;-3.70;97.10
680;DHT22;322;48.846;9.230;2024-01-10T06:24:43;-3.70;98.00
680;DHT22;322;48.846;9.230;2024-01-10T06:27:12;-3.60;98.60
680;DHT22;322;48.846;9.230;2024-01-10T06:29:40;-3.70;98.40
680;DHT22;322;48.846;9.230;2024-01-10T06:32:10;-3.60;98.50
680;DHT22;322;48.846;9.230;2024-01-10T06:34:38;-3.50;98.70
680;DHT22;322;48.846;9.230;2024-01-10T06:37:06;-3.50;98.40
680;DHT22;322;48.846;9.230;2024-01-10T06:39:34;-3.50;98.40
680;DHT22;322;48.846;9.230;2024-01-10T06:42:02;-3.60;98.60
680;DHT22;322;48.846;9.230;2024-01-10T06:44:34;-3.60;98.50
680;DHT22;322;48.846;9.230;2024-01-10T06:47:02;-3.40;98.40
680;DHT22;322;48.846;9.230;2024-01-10T06:49:30;-3.50;97.00
680;DHT22;322;48.846;9.230;2024-01-10T06:51:58;-3.60;97.10
680;DHT22;322;48.846;9.230;2024-01-10T06:54:27;-3.60;96.40
680;DHT22;322;48.846;9.230;2024-01-10T06:56:55;-3.70;96.00
680;DHT22;322;48.846;9.230;2024-01-10T06:59:23;-3.70;96.50
680;DHT22;322;48.846;9.230;2024-01-10T07:01:53;-3.80;97.40
680;DHT22;322;48.846;9.230;2024-01-10T07:04:23;-3.90;97.90
680;DHT22;322;48.846;9.230;2024-01-10T07:06:51;-3.90;98.00
680;DHT22;322;48.846;9.230;2024-01-10T07:09:19;-3.80;98.80
680;DHT22;322;48.846;9.230;2024-01-10T07:11:47;-4.00;98.70
680;DHT22;322;48.846;9.230;2024-01-10T07:14:15;-4.20;98.50
680;DHT22;322;48.846;9.230;2024-01-10T07:16:43;-4.30;98.30
680;DHT22;322;48.846;9.230;2024-01-10T07:19:14;-4.40;99.00
680;DHT22;322;48.846;9.230;2024-01-10T07:21:43;-4.30;99.50
680;DHT22;322;48.846;9.230;2024-01-10T07:24:11;-4.20;98.90
680;DHT22;322;48.846;9.230;2024-01-10T07:26:40;-4.20;98.70
680;DHT22;322;48.846;9.230;2024-01-10T07:29:08;-4.20;99.30
680;DHT22;322;48.846;9.230;2024-01-10T07:31:36;-4.10;99.70
680;DHT22;322;48.846;9.230;2024-01-10T07:34:04;-4.20;99.80
680;DHT22;322;48.846;9.230;2024-01-10T07:36:41;-4.20;99.90
680;DHT22;322;48.846;9.230;2024-01-10T07:39:10;-4.30;99.90
680;DHT22;322;48.846;9.230;2024-01-10T07:41:37;-4.40;99.70
680;DHT22;322;48.846;9.230;2024-01-10T07:44:04;-4.50;99.40
680;DHT22;322;48.846;9.230;2024-01-10T07:46:32;-4.60;99.60
680;DHT22;322;48.846;9.230;2024-01-10T07:49:01;-4.60;99.80
680;DHT22;322;48.846;9.230;2024-01-10T07:51:29;-4.60;99.90
680;DHT22;322;48.846;9.230;2024-01-10T07:53:58;-4.60;99.90
680;DHT22;322;48.846;9.230;2024-01-10T07:56:26;-4.50;99.90
680;DHT22;322;48.846;9.230;2024-01-10T07:58:55;-4.30;99.90
680;DHT22;322;48.846;9.230;2024-01-10T08:01:23;-4.30;99.90
680;DHT22;322;48.846;9.230;2024-01-10T08:03:50;-4.10;99.80
680;DHT22;322;48.846;9.230;2024-01-10T08:06:19;-3.90;99.50
680;DHT22;322;48.846;9.230;2024-01-10T08:08:59;-3.80;99.90
680;DHT22;322;48.846;9.230;2024-01-10T08:11:30;-3.60;99.90
680;DHT22;322;48.846;9.230;2024-01-10T08:13:58;-3.50;99.30
680;DHT22;322;48.846;9.230;2024-01-10T08:16:27;-3.50;98.20
680;DHT22;322;48.846;9.230;2024-01-10T08:18:55;-3.30;98.90
680;DHT22;322;48.846;9.230;2024-01-10T08:21:23;-3.10;99.40
680;DHT22;322;48.846;9.230;2024-01-10T08:23:51;-2.90;99.10
680;DHT22;322;48.846;9.230;2024-01-10T08:26:21;-2.70;98.60
680;DHT22;322;48.846;9.230;2024-01-10T08:28:49;-2.60;97.90
680;DHT22;322;48.846;9.230;2024-01-10T08:31:17;-2.40;98.50
680;DHT22;322;48.846;9.230;2024-01-10T08:33:45;-2.20;97.00
680;DHT22;322;48.846;9.230;2024-01-10T08:36:14;-2.20;97.90
680;DHT22;322;48.846;9.230;2024-01-10T08:38:42;-2.00;98.10
680;DHT22;322;48.846;9.230;2024-01-10T08:41:11;-1.80;97.90
680;DHT22;322;48.846;9.230;2024-01-10T08:43:40;-1.50;97.80
680;DHT22;322;48.846;9.230;2024-01-10T08:46:08;-1.20;97.70
680;DHT22;322;48.846;9.230;2024-01-10T08:48:37;-1.10;96.20
680;DHT22;322;48.846;9.230;2024-01-10T08:51:05;-1.00;96.20
680;DHT22;322;48.846;9.230;2024-01-10T08:53:33;-0.80;95.70
680;DHT22;322;48.846;9.230;2024-01-10T08:56:01;-0.60;95.10
680;DHT22;322;48.846;9.230;2024-01-10T08:58:29;-0.50;94.90
680;DHT22;322;48.846;9.230;2024-01-10T09:00:58;-0.50;93.70
680;DHT22;322;48.846;9.230;2024-01-10T09:03:26;-0.40;93.70
680;DHT22;322;48.846;9.230;2024-01-10T09:05:54;-0.30;92.30
680;DHT22;322;48.846;9.230;2024-01-10T09:08:34;-0.30;93.10
680;DHT22;322;48.846;9.230;2024-01-10T09:11:02;-0.20;92.80
680;DHT22;322;48.846;9.230;2024-01-10T09:13:30;-0.30;92.20
680;DHT22;322;48.846;9.230;2024-01-10T09:16:00;-0.30;91.70
680;DHT22;322;48.846;9.230;2024-01-10T09:18:28;-0.30;91.90
680;DHT22;322;48.846;9.230;2024-01-10T09:20:56;-0.40;92.10
680;DHT22;322;48.846;9.230;2024-01-10T09:23:24;-0.40;91.50
680;DHT22;322;48.846;9.230;2024-01-10T09:25:54;-0.30;91.90
680;DHT22;322;48.846;9.230;2024-01-10T09:28:22;-0.30;91.20
680;DHT22;322;48.846;9.230;2024-01-10T09:30:50;-0.40;91.50
680;DHT22;322;48.846;9.230;2024-01-10T09:33:20;-0.30;92.00
680;DHT22;322;48.846;9.230;2024-01-10T09:35:49;-0.30;91.60
680;DHT22;322;48.846;9.230;2024-01-10T09:38:17;-0.40;91.60
680;DHT22;322;48.846;9.230;2024-01-10T09:40:45;-0.50;91.30
680;DHT22;322;48.846;9.230;2024-01-10T09:43:13;-0.50;90.80
680;DHT22;322;48.846;9.230;2024-01-10T09:45:43;-0.60;90.50
680;DHT22;322;48.846;9.230;2024-01-10T09:48:14;-0.70;91.30
680;DHT22;322;48.846;9.230;2024-01-10T09:50:44;-0.80;91.60
680;DHT22;322;48.846;9.230;2024-01-10T09:53:22;-0.80;92.40
680;DHT22;322;48.846;9.230;2024-01-10T09:55:51;-0.70;92.00
680;DHT22;322;48.846;9.230;2024-01-10T09:58:19;-0.70;91.30
680;DHT22;322;48.846;9.230;2024-01-10T10:00:47;-0.60;91.90
680;DHT22;322;48.846;9.230;2024-01-10T10:03:17;-0.60;91.70
680;DHT22;322;48.846;9.230;2024-01-10T10:05:46;-0.50;91.20
680;DHT22;322;48.846;9.230;2024-01-10T10:08:15;-0.40;91.20
680;DHT22;322;48.846;9.230;2024-01-10T10:10:49;-0.40;90.90
680;DHT22;322;48.846;9.230;2024-01-10T10:13:24;-0.40;91.10
680;DHT22;322;48.846;9.230;2024-01-10T10:15:59;-0.30;91.20
680;DHT22;322;48.846;9.230;2024-01-10T10:18:29;-0.20;91.00
680;DHT22;322;48.846;9.230;2024-01-10T10:21:09;-0.10;91.00
680;DHT22;322;48.846;9.230;2024-01-10T10:23:39;-0.10;91.00
680;DHT22;322;48.846;9.230;2024-01-10T10:26:11;0.00;90.00
680;DHT22;322;48.846;9.230;2024-01-10T10:28:41;0.30;89.70
680;DHT22;322;48.846;9.230;2024-01-10T10:31:09;0.80;89.70
680;DHT22;322;48.846;9.230;2024-01-10T10:33:39;1.50;87.10
680;DHT22;322;48.846;9.230;2024-01-10T10:36:08;2.20;85.60
680;DHT22;322;48.846;9.230;2024-01-10T10:38:37;2.90;83.10
680;DHT22;322;48.846;9.230;2024-01-10T10:41:05;3.50;83.80
680;DHT22;322;48.846;9.230;2024-01-10T10:43:38;4.10;80.50
680;DHT22;322;48.846;9.230;2024-01-10T10:46:07;4.30;77.10
680;DHT22;322;48.846;9.230;2024-01-10T10:48:36;4.40;73.70
680;DHT22;322;48.846;9.230;2024-01-10T10:51:05;4.70;73.50
680;DHT22;322;48.846;9.230;2024-01-10T10:53:37;4.70;72.90
680;DHT22;322;48.846;9.230;2024-01-10T10:56:06;4.60;75.00
680;DHT22;322;48.846;9.230;2024-01-10T10:58:39;4.10;75.30
680;DHT22;322;48.846;9.230;2024-01-10T11:01:08;3.60;76.60
680;DHT22;322;48.846;9.230;2024-01-10T11:03:38;3.10;76.00
680;DHT22;322;48.846;9.230;2024-01-10T11:06:07;2.60;78.40
680;DHT22;322;48.846;9.230;2024-01-10T11:08:39;2.20;79.10
680;DHT22;322;48.846;9.230;2024-01-10T11:11:16;1.80;81.10
680;DHT22;322;48.846;9.230;2024-01-10T11:14:06;1.70;81.90
680;DHT22;322;48.846;9.230;2024-01-10T11:16:53;1.50;83.10
680;DHT22;322;48.846;9.230;2024-01-10T11:22:33;1.40;83.50
680;DHT22;322;48.846;9.230;2024-01-10T11:25:06;1.20;84.90
680;DHT22;322;48.846;9.230;2024-01-10T11:27:36;1.10;85.50
680;DHT22;322;48.846;9.230;2024-01-10T11:30:05;1.00;86.70
680;DHT22;322;48.846;9.230;2024-01-10T11:32:34;1.00;86.00
680;DHT22;322;48.846;9.230;2024-01-10T11:35:10;0.80;87.20
680;DHT22;322;48.846;9.230;2024-01-10T11:37:39;0.90;86.60
680;DHT22;322;48.846;9.230;2024-01-10T11:40:12;0.90;85.70
680;DHT22;322;48.846;9.230;2024-01-10T11:42:44;0.80;84.90
680;DHT22;322;48.846;9.230;2024-01-10T11:45:36;0.80;86.10
680;DHT22;322;48.846;9.230;2024-01-10T11:48:07;0.80;87.40
680;DHT22;322;48.846;9.230;2024-01-10T11:50:35;0.90;88.50
680;DHT22;322;48.846;9.230;2024-01-10T11:53:04;0.90;88.00
680;DHT22;322;48.846;9.230;2024-01-10T11:55:50;0.90;86.70
680;DHT22;322;48.846;9.230;2024-01-10T11:58:19;0.90;87.50
680;DHT22;322;48.846;9.230;2024-01-10T12:00:47;0.90;86.70
680;DHT22;322;48.846;9.230;2024-01-10T12:03:16;1.00;87.70
680;DHT22;322;48.846;9.230;2024-01-10T12:05:45;1.00;87.60
680;DHT22;322;48.846;9.230;2024-01-10T12:08:13;1.00;88.50
680;DHT22;322;48.846;9.230;2024-01-10T12:10:42;1.10;89.50
680;DHT22;322;48.846;9.230;2024-01-10T12:13:11;1.20;87.10
680;DHT22;322;48.846;9.230;2024-01-10T12:15:39;1.10;88.00
680;DHT22;322;48.846;9.230;2024-01-10T12:18:07;1.20;89.40
680;DHT22;322;48.846;9.230;2024-01-10T12:20:38;1.20;86.90
680;DHT22;322;48.846;9.230;2024-01-10T12:23:06;1.20;87.50
680;DHT22;322;48.846;9.230;2024-01-10T12:25:34;1.10;87.60
680;DHT22;322;48.846;9.230;2024-01-10T12:28:04;1.10;89.20
680;DHT22;322;48.846;9.230;2024-01-10T12:30:33;1.10;88.50
680;DHT22;322;48.846;9.230;2024-01-10T12:33:01;1.00;87.40
680;DHT22;322;48.846;9.230;2024-01-10T12:35:29;0.90;86.30
680;DHT22;322;48.846;9.230;2024-01-10T12:37:57;0.90;88.80
680;DHT22;322;48.846;9.230;2024-01-10T12:40:25;0.90;87.60
680;DHT22;322;48.846;9.230;2024-01-10T12:43:02;0.90;88.20
680;DHT22;322;48.846;9.230;2024-01-10T12:45:30;1.00;89.80
680;DHT22;322;48.846;9.230;2024-01-10T12:47:59;1.00;88.70
680;DHT22;322;48.846;9.230;2024-01-10T12:50:29;0.90;87.50
680;DHT22;322;48.846;9.230;2024-01-10T12:52:57;0.90;88.80
680;DHT22;322;48.846;9.230;2024-01-10T12:55:26;1.00;89.20
680;DHT22;322;48.846;9.230;2024-01-10T12:57:54;1.00;90.00
680;DHT22;322;48.846;9.230;2024-01-10T13:00:26;1.00;90.10
680;DHT22;322;48.846;9.230;2024-01-10T13:02:56;1.10;87.60
680;DHT22;322;48.846;9.230;2024-01-10T13:05:25;1.10;87.70
680;DHT22;322;48.846;9.230;2024-01-10T13:07:53;1.10;89.10
680;DHT22;322;48.846;9.230;2024-01-10T13:10:22;1.10;89.30
680;DHT22;322;48.846;9.230;2024-01-10T13:12:50;1.20;88.90
680;DHT22;322;48.846;9.230;2024-01-10T13:15:18;1.10;87.50
680;DHT22;322;48.846;9.230;2024-01-10T13:17:46;1.10;89.20
680;DHT22;322;48.846;9.230;2024-01-10T13:20:14;1.00;85.80
680;DHT22;322;48.846;9.230;2024-01-10T13:22:44;0.90;88.80
680;DHT22;322;48.846;9.230;2024-01-10T13:25:13;0.90;89.90
680;DHT22;322;48.846;9.230;2024-01-10T13:27:42;0.90;89.10
680;DHT22;322;48.846;9.230;2024-01-10T13:30:10;0.90;87.70
680;DHT22;322;48.846;9.230;2024-01-10T13:32:39;0.90;88.70
680;DHT22;322;48.846;9.230;2024-01-10T13:35:07;0.90;88.00
680;DHT22;322;48.846;9.230;2024-01-10T13:37:35;0.90;87.50
680;DHT22;322;48.846;9.230;2024-01-10T13:40:06;0.80;88.40
680;DHT22;322;48.846;9.230;2024-01-10T13:42:34;0.90;89.40
680;DHT22;322;48.846;9.230;2024-01-10T13:45:04;0.80;87.90
680;DHT22;322;48.846;9.230;2024-01-10T13:47:32;0.80;89.30
680;DHT22;322;48.846;9.230;2024-01-10T13:50:01;0.80;87.40
680;DHT22;322;48.846;9.230;2024-01-10T13:52:30;0.80;88.40
680;DHT22;322;48.846;9.230;2024-01-10T13:54:58;0.80;90.30
680;DHT22;322;48.846;9.230;2024-01-10T13:57:27;0.80;90.60
680;DHT22;322;48.846;9.230;2024-01-10T13:59:57;0.80;89.60
680;DHT22;322;48.846;9.230;2024-01-10T14:02:26;0.80;90.70
680;DHT22;322;48.846;9.230;2024-01-10T14:04:54;0.90;90.90
680;DHT22;322;48.846;9.230;2024-01-10T14:07:24;0.90;91.10
680;DHT22;322;48.846;9.230;2024-01-10T14:09:52;0.90;90.40
680;DHT22;322;48.846;9.230;2024-01-10T14:12:21;1.00;90.70
680;DHT22;322;48.846;9.230;2024-01-10T14:14:51;1.00;90.70
680;DHT22;322;48.846;9.230;2024-01-10T14:17:19;1.00;90.20
680;DHT22;322;48.846;9.230;2024-01-10T14:19:50;1.10;90.10
680;DHT22;322;48.846;9.230;2024-01-10T14:22:18;1.00;90.00
680;DHT22;322;48.846;9.230;2024-01-10T14:24:57;1.00;89.30
680;DHT22;322;48.846;9.230;2024-01-10T14:27:28;0.90;90.10
680;DHT22;322;48.846;9.230;2024-01-10T14:29:58;0.90;89.70
680;DHT22;322;48.846;9.230;2024-01-10T14:32:30;0.90;90.10
680;DHT22;322;48.846;9.230;2024-01-10T14:35:00;0.80;90.30
680;DHT22;322;48.846;9.230;2024-01-10T14:37:28;0.70;90.50
680;DHT22;322;48.846;9.230;2024-01-10T14:39:56;0.80;90.90
680;DHT22;322;48.846;9.230;2024-01-10T14:42:24;0.80;90.50
680;DHT22;322;48.846;9.230;2024-01-10T14:44:52;0.80;90.80
680;DHT22;322;48.846;9.230;2024-01-10T14:47:22;0.70;90.60
680;DHT22;322;48.846;9.230;2024-01-10T14:49:50;0.70;91.40
680;DHT22;322;48.846;9.230;2024-01-10T14:52:18;0.70;91.30
680;DHT22;322;48.846;9.230;2024-01-10T14:54:46;0.60;91.40
680;DHT22;322;48.846;9.230;2024-01-10T14:57:14;0.70;91.40
680;DHT22;322;48.846;9.230;2024-01-10T14:59:43;0.60;91.10
680;DHT22;322;48.846;9.230;2024-01-10T15:02:14;0.60;91.10
680;DHT22;322;48.846;9.230;2024-01-10T15:04:44;0.50;91.30
680;DHT22;322;48.846;9.230;2024-01-10T15:07:12;0.50;92.00
680;DHT22;322;48.846;9.230;2024-01-10T15:09:42;0.40;92.00
680;DHT22;322;48.846;9.230;2024-01-10T15:12:11;0.30;92.10
680;DHT22;322;48.846;9.230;2024-01-10T15:14:40;0.20;92.00
680;DHT22;322;48.846;9.230;2024-01-10T15:17:08;0.10;92.10
680;DHT22;322;48.846;9.230;2024-01-10T15:19:39;0.10;92.30
680;DHT22;322;48.846;9.230;2024-01-10T15:22:09;0.00;92.10
680;DHT22;322;48.846;9.230;2024-01-10T15:24:37;0.00;92.10
680;DHT22;322;48.846;9.230;2024-01-10T15:27:05;-0.10;92.10
680;DHT22;322;48.846;9.230;2024-01-10T15:29:37;-0.10;92.30
680;DHT22;322;48.846;9.230;2024-01-10T15:32:06;-0.20;92.40
680;DHT22;322;48.846;9.230;2024-01-10T15:34:35;-0.20;92.40
680;DHT22;322;48.846;9.230;2024-01-10T15:37:05;-0.30;92.40
680;DHT22;322;48.846;9.230;2024-01-10T15:39:34;-0.40;92.50
680;DHT22;322;48.846;9.230;2024-01-10T15:42:02;-0.50;92.70
680;DHT22;322;48.846;9.230;2024-01-10T15:44:30;-0.50;92.80
680;DHT22;322;48.846;9.230;2024-01-10T15:46:58;-0.60;93.10
680;DHT22;322;48.846;9.230;2024-01-10T15:49:26;-0.60;93.30
680;DHT22;322;48.846;9.230;2024-01-10T15:51:54;-0.70;93.40
680;DHT22;322;48.846;9.230;2024-01-10T15:54:22;-0.70;93.50
680;DHT22;322;48.846;9.230;2024-01-10T15:56:52;-0.70;93.60
680;DHT22;322;48.846;9.230;2024-01-10T15:59:20;-0.80;93.90
680;DHT22;322;48.846;9.230;2024-01-10T16:01:48;-0.80;94.00
680;DHT22;322;48.846;9.230;2024-01-10T16:04:16;-0.90;94.00
680;DHT22;322;48.846;9.230;2024-01-10T16:06:44;-1.00;94.20
680;DHT22;322;48.846;9.230;2024-01-10T16:09:12;-1.00;94.20
680;DHT22;322;48.846;9.230;2024-01-10T16:11:40;-1.00;94.20
680;DHT22;322;48.846;9.230;2024-01-10T16:14:10;-1.10;94.30
680;DHT22;322;48.846;9.230;2024-01-10T16:16:38;-1.10;94.60
680;DHT22;322;48.846;9.230;2024-01-10T16:19:06;-1.20;94.30
680;DHT22;322;48.846;9.230;2024-01-10T16:21:35;-1.20;94.40
680;DHT22;322;48.846;9.230;2024-01-10T16:24:03;-1.20;94.60
680;DHT22;322;48.846;9.230;2024-01-10T16:26:31;-1.30;95.00
680;DHT22;322;48.846;9.230;2024-01-10T16:28:59;-1.50;95.90
680;DHT22;322;48.846;9.230;2024-01-10T16:31:29;-1.70;96.70
680;DHT22;322;48.846;9.230;2024-01-10T16:33:57;-1.80;97.60
680;DHT22;322;48.846;9.230;2024-01-10T16:36:25;-2.00;97.70
680;DHT22;322;48.846;9.230;2024-01-10T16:38:53;-2.20;98.50
680;DHT22;322;48.846;9.230;2024-01-10T16:41:21;-2.10;99.20
680;DHT22;322;48.846;9.230;2024-01-10T16:43:49;-2.20;98.90
680;DHT22;322;48.846;9.230;2024-01-10T16:46:19;-2.30;99.20
680;DHT22;322;48.846;9.230;2024-01-10T16:48:48;-2.30;99.30
680;DHT22;322;48.846;9.230;2024-01-10T16:51:16;-2.20;99.00
680;DHT22;322;48.846;9.230;2024-01-10T16:53:44;-2.20;99.20